createdAt,value
2019-02-07T00:02:29.770Z,23.30
2019-02-07T00:05:00.438Z,15.58
2019-02-07T00:07:30.481Z,11.68
2019-02-07T00:10:00.517Z,7.90
2019-02-07T00:12:32.480Z,6.50
2019-02-07T00:15:04.736Z,6.60
2019-02-07T00:17:35.990Z,7.35
2019-02-07T00:20:08.383Z,7.17
2019-02-07T00:22:39.801Z,6.12
2019-02-07T00:25:10.518Z,6.42
2019-02-07T00:27:40.697Z,6.70
2019-02-07T00:30:13.293Z,6.40
2019-02-07T00:32:43.304Z,6.37
2019-02-07T00:35:13.715Z,6.30
2019-02-07T00:37:44.588Z,6.20
2019-02-07T00:40:15.740Z,6.30
2019-02-07T00:42:46.466Z,7.17
2019-02-07T00:45:16.835Z,6.40
2019-02-07T00:47:46.914Z,6.58
2019-02-07T00:50:16.945Z,6.58
2019-02-07T00:52:47.098Z,6.30
2019-02-07T00:55:17.482Z,6.50
2019-02-07T00:57:47.627Z,5.90
2019-02-07T01:00:20.790Z,6.75
2019-02-07T01:02:51.153Z,6.12
2019-02-07T01:05:22.314Z,6.45
2019-02-07T01:07:52.733Z,6.50
2019-02-07T01:10:24.861Z,6.55
2019-02-07T01:12:55.462Z,6.08
2019-02-07T01:15:26.113Z,7.12
2019-02-07T01:17:56.118Z,6.60
2019-02-07T01:20:26.348Z,5.80
2019-02-07T01:22:56.726Z,6.45
2019-02-07T01:25:26.794Z,6.92
2019-02-07T01:27:57.363Z,6.58
2019-02-07T01:30:27.450Z,5.53
2019-02-07T01:32:57.834Z,5.65
2019-02-07T01:35:28.422Z,6.05
2019-02-07T01:37:58.456Z,5.10
2019-02-07T01:40:28.467Z,5.53
2019-02-07T01:42:58.591Z,4.20
2019-02-07T01:45:28.602Z,3.83
2019-02-07T01:47:58.946Z,4.83
2019-02-07T01:50:29.113Z,4.08
2019-02-07T01:52:58.976Z,4.20
2019-02-07T01:55:29.181Z,3.90
2019-02-07T01:58:00.240Z,3.92
2019-02-07T02:00:30.575Z,3.20
2019-02-07T02:03:00.792Z,4.05
2019-02-07T02:05:31.029Z,3.40
2019-02-07T02:08:01.445Z,3.90
2019-02-07T02:10:31.555Z,3.52
2019-02-07T02:13:01.639Z,3.77
2019-02-07T02:15:31.682Z,3.80
2019-02-07T02:18:01.837Z,3.83
2019-02-07T02:20:32.222Z,3.65
2019-02-07T02:23:02.770Z,3.50
2019-02-07T02:25:32.694Z,3.58
2019-02-07T02:28:02.998Z,3.65
2019-02-07T02:30:35.118Z,4.00
2019-02-07T02:33:06.060Z,4.08
2019-02-07T02:35:36.279Z,3.45
2019-02-07T02:38:06.807Z,3.75
2019-02-07T02:40:36.972Z,3.85
2019-02-07T02:43:07.403Z,3.50
2019-02-07T02:45:38.088Z,3.58
2019-02-07T02:48:08.264Z,3.15
2019-02-07T02:50:40.506Z,3.62
2019-02-07T02:53:12.979Z,3.60
2019-02-07T02:55:44.707Z,3.90
2019-02-07T02:58:15.130Z,3.42
2019-02-07T03:01:13.527Z,3.50
2019-02-07T03:03:53.039Z,3.83
2019-02-07T03:06:42.348Z,3.58
2019-02-07T03:09:37.780Z,3.62
2019-02-07T03:12:36.090Z,4.08
2019-02-07T03:15:33.291Z,3.20
2019-02-07T03:18:20.764Z,3.75
2019-02-07T03:21:10.035Z,3.90
2019-02-07T03:24:01.822Z,3.92
2019-02-07T03:26:53.790Z,4.55
2019-02-07T03:29:42.976Z,4.45
2019-02-07T03:32:29.196Z,4.53
2019-02-07T03:35:17.994Z,3.98
2019-02-07T03:37:58.477Z,4.50
2019-02-07T03:40:45.885Z,4.80
2019-02-07T03:43:37.911Z,4.25
2019-02-07T03:46:34.816Z,4.80
2019-02-07T03:49:30.030Z,5.20
2019-02-07T03:52:36.755Z,4.72
2019-02-07T03:55:25.869Z,5.05
2019-02-07T03:58:13.445Z,4.62
2019-02-07T04:01:07.256Z,5.25
2019-02-07T04:04:01.647Z,5.85
2019-02-07T04:06:49.130Z,4.95
2019-02-07T04:09:47.195Z,5.50
2019-02-07T04:12:29.476Z,4.70
2019-02-07T04:15:16.602Z,4.95
2019-02-07T04:18:04.538Z,4.78
2019-02-07T04:20:44.699Z,5.90
2019-02-07T04:23:40.673Z,5.60
2019-02-07T04:26:35.847Z,5.40
2019-02-07T04:29:21.916Z,5.60
2019-02-07T04:32:08.030Z,5.05
2019-02-07T04:34:49.234Z,5.53
2019-02-07T04:37:38.089Z,5.15
2019-02-07T04:40:34.602Z,6.05
2019-02-07T04:43:21.671Z,5.47
2019-02-07T04:46:26.644Z,5.55
2019-02-07T04:49:13.711Z,5.58
2019-02-07T04:52:08.815Z,5.05
2019-02-07T04:54:54.640Z,5.35
2019-02-07T04:57:40.515Z,5.10
2019-02-07T05:00:22.842Z,5.08
2019-02-07T05:03:11.030Z,5.85
2019-02-07T05:06:00.461Z,5.72
2019-02-07T05:09:08.202Z,4.25
2019-02-07T05:11:52.002Z,4.50
2019-02-07T05:14:37.336Z,5.45
2019-02-07T05:17:37.014Z,5.20
2019-02-07T05:20:36.738Z,5.08
2019-02-07T05:23:24.134Z,6.05
2019-02-07T05:26:12.063Z,4.83
2019-02-07T05:28:59.673Z,4.33
2019-02-07T05:31:51.788Z,4.70
2019-02-07T05:34:39.037Z,4.92
2019-02-07T05:37:26.222Z,4.15
2019-02-07T05:40:06.690Z,7.80
2019-02-07T05:42:54.303Z,9.38
2019-02-07T05:45:49.432Z,6.30
2019-02-07T05:48:34.422Z,6.45
2019-02-07T05:51:21.161Z,6.90
2019-02-07T05:54:03.161Z,5.78
2019-02-07T05:56:54.200Z,6.50
2019-02-07T05:59:42.637Z,5.33
2019-02-07T06:02:40.727Z,5.30
2019-02-07T06:05:22.781Z,4.80
2019-02-07T06:08:10.529Z,5.17
2019-02-07T06:11:02.719Z,7.12
2019-02-07T06:13:50.829Z,7.30
2019-02-07T06:17:02.354Z,5.90
2019-02-07T06:19:57.648Z,6.35
2019-02-07T06:22:48.167Z,5.60
2019-02-07T06:25:33.737Z,5.80
2019-02-07T06:28:27.622Z,6.95
2019-02-07T06:31:10.173Z,7.45
2019-02-07T06:33:58.173Z,6.35
2019-02-07T06:36:56.486Z,7.55
2019-02-07T06:39:37.325Z,7.12
2019-02-07T06:42:19.279Z,7.33
2019-02-07T06:45:08.830Z,7.20
2019-02-07T06:47:57.815Z,8.55
2019-02-07T06:50:56.178Z,8.60
2019-02-07T06:53:50.917Z,7.58
2019-02-07T06:56:52.224Z,7.30
2019-02-07T06:59:32.938Z,9.55
2019-02-07T07:02:28.143Z,12.50
2019-02-07T07:05:17.356Z,9.30
2019-02-07T07:08:06.203Z,8.23
2019-02-07T07:10:48.079Z,8.78
2019-02-07T07:13:42.873Z,9.73
2019-02-07T07:16:30.358Z,9.45
2019-02-07T07:19:23.300Z,9.48
2019-02-07T07:22:15.800Z,10.00
2019-02-07T07:25:08.964Z,9.73
2019-02-07T07:28:10.310Z,10.45
2019-02-07T07:31:09.550Z,10.48
2019-02-07T07:34:01.026Z,11.17
2019-02-07T07:37:03.044Z,10.77
2019-02-07T07:39:51.203Z,10.58
2019-02-07T07:42:44.235Z,11.97
2019-02-07T07:45:35.962Z,11.10
2019-02-07T07:48:24.194Z,10.28
2019-02-07T07:51:06.473Z,12.75
2019-02-07T07:53:55.829Z,10.70
2019-02-07T07:56:44.568Z,10.78
2019-02-07T07:59:37.579Z,9.40
2019-02-07T08:02:38.804Z,9.67
2019-02-07T08:05:30.005Z,8.90
2019-02-07T08:08:14.329Z,8.90
2019-02-07T08:11:07.480Z,9.10
2019-02-07T08:14:11.214Z,8.80
2019-02-07T08:17:01.016Z,9.03
2019-02-07T08:19:53.028Z,9.47
2019-02-07T08:22:41.121Z,9.63
2019-02-07T08:25:45.308Z,9.73
2019-02-07T08:28:30.863Z,10.27
2019-02-07T08:31:21.290Z,9.87
2019-02-07T08:34:11.514Z,9.90
2019-02-07T08:37:18.284Z,9.30
2019-02-07T08:40:07.393Z,8.83
2019-02-07T08:42:56.788Z,17.57
2019-02-07T08:45:44.372Z,16.03
2019-02-07T08:48:38.397Z,13.30
2019-02-07T08:51:27.687Z,12.77
2019-02-07T08:54:19.775Z,11.00
2019-02-07T08:57:09.004Z,11.97
2019-02-07T08:59:56.450Z,10.10
2019-02-07T09:02:51.510Z,9.70
2019-02-07T09:05:33.773Z,10.13
2019-02-07T09:08:38.143Z,14.97
2019-02-07T09:11:25.322Z,17.27
2019-02-07T09:14:15.013Z,14.17
2019-02-07T09:17:09.839Z,15.10
2019-02-07T09:19:57.424Z,12.03
2019-02-07T09:22:50.611Z,10.63
2019-02-07T09:25:39.466Z,9.00
2019-02-07T09:28:28.333Z,9.30
2019-02-07T09:31:16.262Z,10.23
2019-02-07T09:34:03.810Z,8.53
2019-02-07T09:36:53.141Z,10.00
2019-02-07T09:39:57.279Z,10.37
2019-02-07T09:42:49.846Z,8.77
2019-02-07T09:45:39.393Z,8.30
2019-02-07T09:48:28.838Z,8.70
2019-02-07T09:51:20.463Z,6.70
2019-02-07T09:54:08.718Z,6.80
2019-02-07T09:57:09.432Z,6.40
2019-02-07T10:00:16.267Z,6.20
2019-02-07T10:03:13.940Z,5.97
2019-02-07T10:06:09.136Z,7.10
2019-02-07T10:08:53.936Z,6.90
2019-02-07T10:11:46.240Z,6.13
2019-02-07T10:14:31.143Z,6.90
2019-02-07T10:17:12.020Z,6.40
2019-02-07T10:20:06.795Z,5.70
2019-02-07T10:22:59.191Z,6.60
2019-02-07T10:25:48.029Z,6.73
2019-02-07T10:28:37.357Z,6.40
2019-02-07T10:31:21.613Z,6.73
2019-02-07T10:34:18.727Z,6.03
2019-02-07T10:37:07.301Z,6.03
2019-02-07T10:40:14.174Z,5.90
2019-02-07T10:43:14.973Z,6.43
2019-02-07T10:46:03.033Z,6.57
2019-02-07T10:49:03.962Z,6.40
2019-02-07T10:51:52.084Z,6.30
2019-02-07T10:54:49.624Z,6.10
2019-02-07T10:57:41.895Z,5.50
2019-02-07T11:00:38.520Z,5.93
2019-02-07T11:03:26.526Z,6.10
2019-02-07T11:06:13.049Z,6.73
2019-02-07T11:09:02.278Z,5.67
2019-02-07T11:11:53.881Z,6.67
2019-02-07T11:14:54.713Z,7.20
2019-02-07T11:17:58.984Z,7.00
2019-02-07T11:20:50.807Z,8.43
2019-02-07T11:23:45.692Z,8.77
2019-02-07T11:26:37.384Z,9.30
2019-02-07T11:29:38.326Z,8.33
2019-02-07T11:32:27.787Z,8.87
2019-02-07T11:35:15.620Z,9.10
2019-02-07T11:38:09.191Z,9.10
2019-02-07T11:40:56.620Z,8.33
2019-02-07T11:43:54.718Z,9.40
2019-02-07T11:46:42.198Z,9.27
2019-02-07T11:49:31.622Z,8.87
2019-02-07T11:52:26.268Z,9.50
2019-02-07T11:55:15.980Z,9.93
2019-02-07T11:58:08.065Z,9.60
2019-02-07T12:01:01.792Z,9.80
2019-02-07T12:03:55.348Z,9.87
2019-02-07T12:06:43.467Z,10.13
2019-02-07T12:09:31.072Z,9.10
2019-02-07T12:12:35.356Z,10.60
2019-02-07T12:15:36.970Z,11.10
2019-02-07T12:18:33.512Z,11.77
2019-02-07T12:21:35.936Z,11.40
2019-02-07T12:24:25.292Z,11.17
2019-02-07T12:27:20.902Z,11.57
2019-02-07T12:30:08.614Z,10.50
2019-02-07T12:32:49.021Z,10.87
2019-02-07T12:35:37.062Z,10.13
2019-02-07T12:38:30.709Z,9.70
2019-02-07T12:41:23.329Z,9.87
2019-02-07T12:44:08.756Z,9.73
2019-02-07T12:47:10.882Z,8.77
2019-02-07T12:50:15.579Z,8.30
2019-02-07T12:52:53.876Z,8.63
2019-02-07T12:55:51.654Z,7.90
2019-02-07T12:58:45.635Z,9.40
2019-02-07T13:01:34.788Z,8.77
2019-02-07T13:04:27.488Z,8.23
2019-02-07T13:07:28.450Z,8.97
2019-02-07T13:10:14.403Z,7.90
2019-02-07T13:12:58.544Z,8.07
2019-02-07T13:15:57.126Z,8.97
2019-02-07T13:18:47.093Z,8.40
2019-02-07T13:21:42.282Z,8.37
2019-02-07T13:24:34.930Z,8.57
2019-02-07T13:27:24.574Z,9.07
2019-02-07T13:30:26.586Z,8.67
2019-02-07T13:33:13.001Z,8.47
2019-02-07T13:36:17.916Z,7.87
2019-02-07T13:39:14.254Z,7.13
2019-02-07T13:42:00.911Z,8.37
2019-02-07T13:45:05.286Z,8.27
2019-02-07T13:47:57.433Z,8.73
2019-02-07T13:50:50.129Z,8.40
2019-02-07T13:53:37.452Z,7.30
2019-02-07T13:56:29.463Z,7.90
2019-02-07T13:59:26.104Z,8.30
2019-02-07T14:02:14.413Z,6.90
2019-02-07T14:05:12.625Z,8.10
2019-02-07T14:08:13.716Z,8.47
2019-02-07T14:11:03.214Z,9.00
2019-02-07T14:13:57.095Z,8.10
2019-02-07T14:16:47.812Z,8.53
2019-02-07T14:19:38.779Z,7.90
2019-02-07T14:22:26.945Z,8.13
2019-02-07T14:25:17.698Z,8.47
2019-02-07T14:28:05.131Z,8.50
2019-02-07T14:31:06.214Z,8.70
2019-02-07T14:33:54.928Z,8.80
2019-02-07T14:36:47.089Z,9.00
2019-02-07T14:39:36.299Z,9.43
2019-02-07T14:42:26.347Z,9.00
2019-02-07T14:45:13.759Z,8.43
2019-02-07T14:47:45.278Z,8.60
2019-02-07T14:50:17.215Z,9.60
2019-02-07T14:52:47.437Z,9.60
2019-02-07T14:55:18.389Z,8.30
2019-02-07T14:57:48.520Z,8.73
2019-02-07T15:00:21.819Z,9.37
2019-02-07T15:02:53.560Z,9.33
2019-02-07T15:05:24.043Z,9.40
2019-02-07T15:07:54.589Z,11.40
2019-02-07T15:10:26.520Z,8.73
2019-02-07T15:12:56.830Z,9.40
2019-02-07T15:15:27.288Z,7.30
2019-02-07T15:18:03.068Z,9.67
2019-02-07T15:20:33.299Z,8.40
2019-02-07T15:23:04.763Z,9.80
2019-02-07T15:25:35.501Z,9.40
2019-02-07T15:28:07.672Z,8.60
2019-02-07T15:30:38.166Z,9.80
2019-02-07T15:33:09.103Z,9.67
2019-02-07T15:35:43.029Z,9.80
2019-02-07T15:38:13.724Z,9.20
2019-02-07T15:40:46.350Z,11.57
2019-02-07T15:43:17.443Z,8.70
2019-02-07T15:45:48.043Z,10.17
2019-02-07T15:48:19.740Z,9.50
2019-02-07T15:50:51.279Z,8.73
2019-02-07T15:53:23.449Z,9.43
2019-02-07T15:55:54.364Z,9.30
2019-02-07T15:58:43.676Z,9.00
2019-02-07T16:01:33.599Z,9.87
2019-02-07T16:04:10.414Z,8.90
2019-02-07T16:06:41.303Z,9.27
2019-02-07T16:09:15.041Z,8.90
2019-02-07T16:11:45.475Z,9.80
2019-02-07T16:14:17.331Z,9.30
2019-02-07T16:16:52.391Z,8.67
2019-02-07T16:19:27.142Z,8.57
2019-02-07T16:22:08.624Z,9.53
2019-02-07T16:24:41.103Z,9.43
2019-02-07T16:27:12.623Z,9.57
2019-02-07T16:29:45.772Z,9.47
2019-02-07T16:32:16.688Z,9.77
2019-02-07T16:34:55.522Z,9.33
2019-02-07T16:37:27.578Z,10.17
2019-02-07T16:40:06.250Z,11.30
2019-02-07T16:42:43.215Z,10.60
2019-02-07T16:45:17.540Z,10.00
2019-02-07T16:47:51.225Z,9.70
2019-02-07T16:50:26.110Z,9.93
2019-02-07T16:53:11.053Z,8.90
2019-02-07T16:55:45.191Z,9.80
2019-02-07T16:58:21.301Z,8.90
2019-02-07T17:00:57.083Z,9.80
2019-02-07T17:03:31.609Z,10.17
2019-02-07T17:06:04.779Z,9.53
2019-02-07T17:08:37.184Z,10.50
2019-02-07T17:11:08.627Z,10.97
2019-02-07T17:13:42.365Z,12.20
2019-02-07T17:16:13.746Z,9.77
2019-02-07T17:18:47.812Z,10.60
2019-02-07T17:21:22.684Z,9.80
2019-02-07T17:23:54.958Z,9.80
2019-02-07T17:26:27.323Z,10.60
2019-02-07T17:29:00.219Z,11.67
2019-02-07T17:31:31.893Z,11.07
2019-02-07T17:34:02.652Z,10.73
2019-02-07T17:36:32.977Z,12.20
2019-02-07T17:39:07.380Z,13.87
2019-02-07T17:41:38.703Z,11.33
2019-02-07T17:44:13.986Z,10.73
2019-02-07T17:46:49.855Z,10.73
2019-02-07T17:49:20.667Z,12.00
2019-02-07T17:51:50.836Z,11.40
2019-02-07T17:54:22.766Z,10.47
2019-02-07T17:56:55.290Z,11.57
2019-02-07T17:59:26.462Z,14.00
2019-02-07T18:01:59.892Z,13.77
2019-02-07T18:04:31.023Z,10.83
2019-02-07T18:07:02.290Z,11.80
2019-02-07T18:09:33.441Z,12.57
2019-02-07T18:12:04.443Z,11.73
2019-02-07T18:14:34.911Z,10.70
2019-02-07T18:17:06.127Z,13.50
2019-02-07T18:19:37.431Z,12.73
2019-02-07T18:22:10.541Z,12.33
2019-02-07T18:24:41.518Z,12.80
2019-02-07T18:27:12.922Z,12.87
2019-02-07T18:29:43.448Z,11.33
2019-02-07T18:32:17.004Z,11.00
2019-02-07T18:34:47.194Z,13.00
2019-02-07T18:37:18.775Z,12.20
2019-02-07T18:39:54.779Z,11.47
2019-02-07T18:42:27.022Z,11.67
2019-02-07T18:45:04.796Z,12.20
2019-02-07T18:47:35.435Z,12.00
2019-02-07T18:50:27.340Z,11.53
2019-02-07T18:52:59.718Z,11.30
2019-02-07T18:55:35.498Z,10.95
2019-02-07T18:58:32.333Z,10.00
2019-02-07T19:01:03.251Z,14.33
2019-02-07T19:03:45.100Z,10.70
2019-02-07T19:06:17.841Z,9.43
2019-02-07T19:08:50.959Z,9.13
2019-02-07T19:11:22.571Z,10.20
2019-02-07T19:13:54.704Z,10.47
2019-02-07T19:16:25.248Z,9.67
2019-02-07T19:18:55.474Z,9.10
2019-02-07T19:21:25.657Z,10.57
2019-02-07T19:23:56.452Z,9.90
2019-02-07T19:26:26.920Z,10.07
2019-02-07T19:28:57.870Z,9.67
2019-02-07T19:31:29.315Z,10.07
2019-02-07T19:33:59.774Z,13.23
2019-02-07T19:36:33.312Z,11.00
2019-02-07T19:39:05.817Z,9.70
2019-02-07T19:41:36.056Z,10.23
2019-02-07T19:44:08.375Z,9.40
2019-02-07T19:46:42.542Z,10.43
2019-02-07T19:49:14.309Z,10.07
2019-02-07T19:56:40.832Z,10.07
2019-02-07T19:59:15.747Z,10.17
2019-02-07T20:01:46.391Z,10.03
2019-02-07T20:04:19.016Z,10.30
2019-02-07T20:06:49.989Z,10.17
2019-02-07T20:09:22.975Z,10.70
2019-02-07T20:11:55.312Z,8.93
2019-02-07T20:14:33.744Z,10.63
2019-02-07T20:17:06.884Z,10.87
2019-02-07T20:19:39.426Z,9.97
2019-02-07T20:22:20.371Z,10.77
2019-02-07T20:24:50.165Z,10.70
2019-02-07T20:27:24.266Z,9.67
2019-02-07T20:29:57.623Z,9.90
2019-02-07T20:32:29.105Z,10.83
2019-02-07T20:35:00.425Z,9.47
2019-02-07T20:37:32.719Z,10.30
2019-02-07T20:40:12.788Z,12.77
2019-02-07T20:42:45.423Z,10.53
2019-02-07T20:45:17.063Z,9.73
2019-02-07T20:47:47.772Z,10.00
2019-02-07T20:50:24.041Z,10.03
2019-02-07T20:52:57.933Z,8.73
2019-02-07T20:55:29.868Z,10.20
2019-02-07T20:58:00.283Z,9.10
2019-02-07T21:00:33.034Z,8.90
2019-02-07T21:03:03.628Z,9.83
2019-02-07T21:05:34.178Z,9.07
2019-02-07T21:08:07.231Z,9.20
2019-02-07T21:10:39.047Z,8.90
2019-02-07T21:13:12.128Z,9.97
2019-02-07T21:15:42.703Z,9.63
2019-02-07T21:18:12.995Z,8.47
2019-02-07T21:20:43.626Z,9.60
2019-02-07T21:23:13.792Z,9.53
2019-02-07T21:25:55.957Z,10.07
2019-02-07T21:28:26.090Z,9.50
2019-02-07T21:30:56.250Z,10.00
2019-02-07T21:33:26.385Z,9.23
2019-02-07T21:35:57.002Z,9.87
2019-02-07T21:38:28.009Z,10.67
2019-02-07T21:40:58.446Z,10.13
2019-02-07T21:43:29.586Z,9.30
2019-02-07T21:46:00.047Z,9.97
2019-02-07T21:48:30.049Z,9.40
2019-02-07T21:51:00.583Z,10.83
2019-02-07T21:53:30.676Z,9.87
2019-02-07T21:56:02.887Z,9.70
2019-02-07T21:58:32.939Z,9.20
2019-02-07T22:01:03.432Z,11.13
2019-02-07T22:03:34.920Z,8.97
2019-02-07T22:06:06.491Z,9.33
2019-02-07T22:08:37.435Z,9.73
2019-02-07T22:11:09.347Z,9.33
2019-02-07T22:13:39.452Z,10.10
2019-02-07T22:16:09.759Z,10.90
2019-02-07T22:18:39.932Z,9.20
2019-02-07T22:21:11.482Z,9.33
2019-02-07T22:23:41.539Z,8.63
2019-02-07T22:26:12.314Z,9.00
2019-02-07T22:28:42.730Z,8.93
2019-02-07T22:31:15.617Z,9.00
2019-02-07T22:33:45.999Z,9.00
2019-02-07T22:36:16.198Z,8.67
2019-02-07T22:38:46.238Z,8.53
2019-02-07T22:41:16.987Z,8.77
2019-02-07T22:43:47.207Z,9.73
2019-02-07T22:46:17.528Z,8.60
2019-02-07T22:48:48.095Z,8.47
2019-02-07T22:51:18.192Z,9.60
2019-02-07T22:53:48.397Z,10.23
2019-02-07T22:56:18.402Z,9.50
2019-02-07T22:58:48.450Z,9.40
2019-02-07T23:01:47.607Z,9.53
2019-02-07T23:04:18.700Z,9.60
2019-02-07T23:06:51.638Z,9.10
2019-02-07T23:09:23.438Z,9.37
2019-02-07T23:11:53.810Z,8.27
2019-02-07T23:14:23.839Z,8.60
2019-02-07T23:16:56.264Z,8.80
2019-02-07T23:19:26.752Z,10.50
2019-02-07T23:21:56.767Z,9.00
2019-02-07T23:24:28.947Z,7.93
2019-02-07T23:27:00.120Z,9.20
2019-02-07T23:29:30.365Z,8.83
2019-02-07T23:32:01.713Z,8.77
2019-02-07T23:34:32.346Z,8.70
2019-02-07T23:37:02.460Z,8.87
2019-02-07T23:39:32.951Z,8.40
2019-02-07T23:42:03.368Z,8.27
2019-02-07T23:44:33.632Z,8.47
2019-02-07T23:47:03.905Z,9.37
2019-02-07T23:49:34.262Z,7.87
2019-02-07T23:52:04.339Z,8.10
2019-02-07T23:54:34.590Z,7.57
2019-02-07T23:57:06.149Z,8.30
2019-02-07T23:59:36.836Z,7.00
